sensor_id;sensor_type;location;lat;lon;timestamp;pressure;altitude;pressure_sealevel;temperature;humidity
68712;BME280;55690;51.566;19.198;2022-10-31T00:03:37;102021.21;;;9.52;100.00
68712;BME280;55690;51.566;19.198;2022-10-31T00:07:43;102015.86;;;9.51;100.00
68712;BME280;55690;51.566;19.198;2022-10-31T00:11:49;102012.02;;;9.55;100.00
68712;BME280;55690;51.566;19.198;2022-10-31T00:15:55;102017.88;;;9.64;100.00
68712;BME280;55690;51.566;19.198;2022-10-31T00:20:03;102012.29;;;9.67;100.00
68712;BME280;55690;51.566;19.198;2022-10-31T00:24:08;102006.85;;;9.67;100.00
68712;BME280;55690;51.566;19.198;2022-10-31T00:28:14;102001.52;;;9.66;100.00
68712;BME280;55690;51.566;19.198;2022-10-31T00:32:20;102011.11;;;9.73;100.00
68712;BME280;55690;51.566;19.198;2022-10-31T00:36:27;102008.47;;;9.72;100.00
68712;BME280;55690;51.566;19.198;2022-10-31T00:44:39;102015.00;;;9.67;100.00
68712;BME280;55690;51.566;19.198;2022-10-31T00:48:45;102009.66;;;9.66;100.00
68712;BME280;55690;51.566;19.198;2022-10-31T00:52:51;102017.70;;;9.67;100.00
68712;BME280;55690;51.566;19.198;2022-10-31T00:56:57;102019.77;;;9.62;100.00
68712;BME280;55690;51.566;19.198;2022-10-31T01:01:04;102025.70;;;9.71;100.00
68712;BME280;55690;51.566;19.198;2022-10-31T01:05:10;102029.06;;;9.76;100.00
68712;BME280;55690;51.566;19.198;2022-10-31T01:09:16;102017.34;;;9.75;100.00
68712;BME280;55690;51.566;19.198;2022-10-31T01:13:22;102025.23;;;9.80;100.00
68712;BME280;55690;51.566;19.198;2022-10-31T01:17:28;102019.82;;;9.80;100.00
68712;BME280;55690;51.566;19.198;2022-10-31T01:21:34;102015.65;;;9.73;100.00
68712;BME280;55690;51.566;19.198;2022-10-31T01:25:40;102015.07;;;9.66;100.00
68712;BME280;55690;51.566;19.198;2022-10-31T01:29:47;102010.53;;;9.66;100.00
68712;BME280;55690;51.566;19.198;2022-10-31T01:33:54;102019.20;;;9.56;100.00
68712;BME280;55690;51.566;19.198;2022-10-31T01:37:59;102011.94;;;9.56;100.00
68712;BME280;55690;51.566;19.198;2022-10-31T01:42:05;102010.44;;;9.51;100.00
68712;BME280;55690;51.566;19.198;2022-10-31T01:46:13;102007.95;;;9.46;100.00
68712;BME280;55690;51.566;19.198;2022-10-31T01:50:26;102002.30;;;9.51;100.00
68712;BME280;55690;51.566;19.198;2022-10-31T01:54:33;102007.88;;;9.48;100.00
68712;BME280;55690;51.566;19.198;2022-10-31T01:58:37;102010.37;;;9.52;100.00
68712;BME280;55690;51.566;19.198;2022-10-31T02:06:47;101997.42;;;9.57;100.00
68712;BME280;55690;51.566;19.198;2022-10-31T02:10:51;102008.42;;;9.54;100.00
68712;BME280;55690;51.566;19.198;2022-10-31T02:14:57;102011.40;;;9.50;100.00
68712;BME280;55690;51.566;19.198;2022-10-31T02:19:05;102012.02;;;9.55;100.00
68712;BME280;55690;51.566;19.198;2022-10-31T02:40:16;102031.03;;;9.36;100.00
68712;BME280;55690;51.566;19.198;2022-10-31T02:44:28;102023.56;;;9.22;100.00
68712;BME280;55690;51.566;19.198;2022-10-31T02:48:33;102022.75;;;9.20;100.00
68712;BME280;55690;51.566;19.198;2022-10-31T02:52:36;102031.91;;;9.18;100.00
68712;BME280;55690;51.566;19.198;2022-10-31T02:56:38;102021.06;;;9.18;100.00
68712;BME280;55690;51.566;19.198;2022-10-31T03:17:36;102032.27;;;8.91;100.00
68712;BME280;55690;51.566;19.198;2022-10-31T03:21:46;102034.17;;;8.89;100.00
68712;BME280;55690;51.566;19.198;2022-10-31T03:25:50;102033.84;;;8.77;100.00
68712;BME280;55690;51.566;19.198;2022-10-31T03:29:57;102039.27;;;8.77;100.00
68712;BME280;55690;51.566;19.198;2022-10-31T03:34:01;102044.48;;;8.81;100.00
68712;BME280;55690;51.566;19.198;2022-10-31T03:38:05;102046.45;;;8.78;100.00
68712;BME280;55690;51.566;19.198;2022-10-31T03:46:20;102041.61;;;8.65;100.00
68712;BME280;55690;51.566;19.198;2022-10-31T03:50:27;102042.48;;;8.66;100.00
68712;BME280;55690;51.566;19.198;2022-10-31T03:58:57;102046.72;;;8.72;100.00
68712;BME280;55690;51.566;19.198;2022-10-31T04:03:04;102047.73;;;8.69;100.00
68712;BME280;55690;51.566;19.198;2022-10-31T04:07:08;102044.32;;;8.65;100.00
68712;BME280;55690;51.566;19.198;2022-10-31T04:11:13;102056.54;;;8.74;100.00
68712;BME280;55690;51.566;19.198;2022-10-31T04:15:16;102025.84;;;8.55;100.00
68712;BME280;55690;51.566;19.198;2022-10-31T04:19:22;102066.62;;;8.71;100.00
68712;BME280;55690;51.566;19.198;2022-10-31T04:27:28;102057.59;;;8.51;100.00
68712;BME280;55690;51.566;19.198;2022-10-31T04:31:30;102072.81;;;8.54;100.00
68712;BME280;55690;51.566;19.198;2022-10-31T04:35:32;102068.14;;;8.57;100.00
68712;BME280;55690;51.566;19.198;2022-10-31T04:39:33;102074.31;;;8.61;100.00
68712;BME280;55690;51.566;19.198;2022-10-31T04:43:38;102069.91;;;8.58;100.00
68712;BME280;55690;51.566;19.198;2022-10-31T04:47:39;102066.45;;;8.55;100.00
68712;BME280;55690;51.566;19.198;2022-10-31T04:51:41;102068.55;;;8.48;100.00
68712;BME280;55690;51.566;19.198;2022-10-31T04:55:43;102068.20;;;8.36;100.00
68712;BME280;55690;51.566;19.198;2022-10-31T04:59:44;102069.77;;;8.41;100.00
68712;BME280;55690;51.566;19.198;2022-10-31T05:03:46;102082.15;;;8.47;100.00
68712;BME280;55690;51.566;19.198;2022-10-31T05:07:49;102076.05;;;8.42;100.00
68712;BME280;55690;51.566;19.198;2022-10-31T05:11:51;102074.09;;;8.45;100.00
68712;BME280;55690;51.566;19.198;2022-10-31T05:15:52;102072.89;;;8.30;100.00
68712;BME280;55690;51.566;19.198;2022-10-31T05:19:54;102068.55;;;8.26;100.00
68712;BME280;55690;51.566;19.198;2022-10-31T05:23:56;102070.09;;;8.33;100.00
68712;BME280;55690;51.566;19.198;2022-10-31T05:27:57;102073.48;;;8.39;100.00
68712;BME280;55690;51.566;19.198;2022-10-31T05:32:00;102075.36;;;8.37;100.00
68712;BME280;55690;51.566;19.198;2022-10-31T05:36:01;102076.45;;;8.32;100.00
68712;BME280;55690;51.566;19.198;2022-10-31T05:40:09;102078.09;;;8.37;100.00
68712;BME280;55690;51.566;19.198;2022-10-31T05:44:13;102078.24;;;8.32;100.00
68712;BME280;55690;51.566;19.198;2022-10-31T05:48:19;102086.33;;;8.33;100.00
68712;BME280;55690;51.566;19.198;2022-10-31T05:52:25;102082.48;;;8.39;100.00
68712;BME280;55690;51.566;19.198;2022-10-31T05:56:32;102085.05;;;8.42;100.00
68712;BME280;55690;51.566;19.198;2022-10-31T06:00:38;102094.80;;;8.46;100.00
68712;BME280;55690;51.566;19.198;2022-10-31T06:04:44;102102.66;;;8.52;100.00
68712;BME280;55690;51.566;19.198;2022-10-31T06:08:51;102104.48;;;8.52;100.00
68712;BME280;55690;51.566;19.198;2022-10-31T06:12:57;102110.48;;;8.38;100.00
68712;BME280;55690;51.566;19.198;2022-10-31T06:17:03;102114.02;;;8.40;100.00
68712;BME280;55690;51.566;19.198;2022-10-31T06:21:09;102122.70;;;8.48;100.00
68712;BME280;55690;51.566;19.198;2022-10-31T06:25:16;102114.17;;;8.57;100.00
68712;BME280;55690;51.566;19.198;2022-10-31T06:29:22;102119.78;;;8.53;100.00
68712;BME280;55690;51.566;19.198;2022-10-31T06:33:28;102121.80;;;8.68;100.00
68712;BME280;55690;51.566;19.198;2022-10-31T06:37:38;102125.87;;;8.78;100.00
68712;BME280;55690;51.566;19.198;2022-10-31T06:41:40;102131.82;;;8.86;100.00
68712;BME280;55690;51.566;19.198;2022-10-31T06:45:47;102134.94;;;8.97;100.00
68712;BME280;55690;51.566;19.198;2022-10-31T06:49:53;102136.42;;;9.05;100.00
68712;BME280;55690;51.566;19.198;2022-10-31T06:53:59;102139.81;;;9.10;100.00
68712;BME280;55690;51.566;19.198;2022-10-31T06:58:05;102146.54;;;9.20;100.00
68712;BME280;55690;51.566;19.198;2022-10-31T07:02:11;102143.06;;;9.37;100.00
68712;BME280;55690;51.566;19.198;2022-10-31T07:06:17;102150.76;;;9.64;100.00
68712;BME280;55690;51.566;19.198;2022-10-31T07:10:25;102159.20;;;9.77;100.00
68712;BME280;55690;51.566;19.198;2022-10-31T07:14:30;102158.38;;;9.94;100.00
68712;BME280;55690;51.566;19.198;2022-10-31T07:18:36;102159.89;;;9.99;100.00
68712;BME280;55690;51.566;19.198;2022-10-31T07:22:42;102173.26;;;10.23;100.00
68712;BME280;55690;51.566;19.198;2022-10-31T07:26:49;102159.38;;;10.29;100.00
68712;BME280;55690;51.566;19.198;2022-10-31T07:30:57;102164.88;;;10.45;100.00
68712;BME280;55690;51.566;19.198;2022-10-31T07:35:01;102161.41;;;10.60;100.00
68712;BME280;55690;51.566;19.198;2022-10-31T07:39:07;102163.63;;;10.86;100.00
68712;BME280;55690;51.566;19.198;2022-10-31T07:43:13;102161.07;;;11.00;100.00
68712;BME280;55690;51.566;19.198;2022-10-31T07:47:19;102169.69;;;11.26;100.00
68712;BME280;55690;51.566;19.198;2022-10-31T07:51:25;102171.70;;;11.38;100.00
68712;BME280;55690;51.566;19.198;2022-10-31T07:55:32;102177.20;;;11.54;100.00
68712;BME280;55690;51.566;19.198;2022-10-31T07:59:38;102178.62;;;11.61;100.00
68712;BME280;55690;51.566;19.198;2022-10-31T08:03:44;102176.14;;;11.72;100.00
68712;BME280;55690;51.566;19.198;2022-10-31T08:11:56;102181.23;;;11.95;100.00
68712;BME280;55690;51.566;19.198;2022-10-31T08:16:03;102185.27;;;12.04;100.00
68712;BME280;55690;51.566;19.198;2022-10-31T08:24:15;102182.02;;;11.97;100.00
68712;BME280;55690;51.566;19.198;2022-10-31T08:28:21;102180.77;;;12.19;100.00
68712;BME280;55690;51.566;19.198;2022-10-31T08:36:33;102184.79;;;12.43;100.00
68712;BME280;55690;51.566;19.198;2022-10-31T08:40:40;102178.64;;;12.40;100.00
68712;BME280;55690;51.566;19.198;2022-10-31T08:48:52;102184.64;;;12.60;100.00
68712;BME280;55690;51.566;19.198;2022-10-31T08:57:04;102182.83;;;13.05;100.00
68712;BME280;55690;51.566;19.198;2022-10-31T09:01:10;102193.18;;;13.14;100.00
68712;BME280;55690;51.566;19.198;2022-10-31T09:05:17;102192.95;;;13.33;100.00
68712;BME280;55690;51.566;19.198;2022-10-31T09:09:23;102187.22;;;13.38;100.00
68712;BME280;55690;51.566;19.198;2022-10-31T09:13:29;102187.30;;;13.64;100.00
68712;BME280;55690;51.566;19.198;2022-10-31T09:17:35;102187.89;;;13.55;100.00
68712;BME280;55690;51.566;19.198;2022-10-31T09:21:41;102187.50;;;13.61;100.00
68712;BME280;55690;51.566;19.198;2022-10-31T09:25:49;102189.84;;;13.68;100.00
68712;BME280;55690;51.566;19.198;2022-10-31T09:29:53;102184.93;;;13.87;100.00
68712;BME280;55690;51.566;19.198;2022-10-31T09:34:00;102180.05;;;13.92;100.00
68712;BME280;55690;51.566;19.198;2022-10-31T09:38:11;102184.72;;;14.04;100.00
68712;BME280;55690;51.566;19.198;2022-10-31T09:50:51;102179.16;;;14.47;100.00
68712;BME280;55690;51.566;19.198;2022-10-31T09:54:59;102181.63;;;14.64;100.00
68712;BME280;55690;51.566;19.198;2022-10-31T09:59:06;102183.80;;;14.59;100.00
68712;BME280;55690;51.566;19.198;2022-10-31T10:03:26;102182.83;;;14.60;100.00
68712;BME280;55690;51.566;19.198;2022-10-31T10:11:54;102186.90;;;14.67;100.00
68712;BME280;55690;51.566;19.198;2022-10-31T10:28:33;102169.79;;;15.03;100.00
68712;BME280;55690;51.566;19.198;2022-10-31T10:32:49;102190.16;;;15.12;100.00
68712;BME280;55690;51.566;19.198;2022-10-31T10:37:03;102178.75;;;15.18;100.00
68712;BME280;55690;51.566;19.198;2022-10-31T10:41:18;102169.13;;;15.25;100.00
68712;BME280;55690;51.566;19.198;2022-10-31T10:49:50;102163.99;;;15.46;100.00
68712;BME280;55690;51.566;19.198;2022-10-31T10:58:08;102160.23;;;15.85;100.00
68712;BME280;55690;51.566;19.198;2022-10-31T11:02:17;102153.22;;;15.93;100.00
68712;BME280;55690;51.566;19.198;2022-10-31T11:06:25;102157.41;;;16.10;100.00
68712;BME280;55690;51.566;19.198;2022-10-31T11:10:27;102157.73;;;16.18;100.00
68712;BME280;55690;51.566;19.198;2022-10-31T11:14:29;102149.23;;;16.34;100.00
68712;BME280;55690;51.566;19.198;2022-10-31T11:18:34;102148.53;;;16.43;100.00
68712;BME280;55690;51.566;19.198;2022-10-31T11:26:45;102146.43;;;16.71;100.00
68712;BME280;55690;51.566;19.198;2022-10-31T11:30:59;102150.33;;;16.79;100.00
68712;BME280;55690;51.566;19.198;2022-10-31T11:35:08;102146.98;;;16.87;100.00
68712;BME280;55690;51.566;19.198;2022-10-31T11:39:18;102156.09;;;16.87;100.00
68712;BME280;55690;51.566;19.198;2022-10-31T11:43:25;102149.38;;;17.03;100.00
68712;BME280;55690;51.566;19.198;2022-10-31T11:47:30;102147.67;;;17.13;100.00
68712;BME280;55690;51.566;19.198;2022-10-31T11:51:35;102139.97;;;17.29;100.00
68712;BME280;55690;51.566;19.198;2022-10-31T11:55:38;102138.45;;;17.36;100.00
68712;BME280;55690;51.566;19.198;2022-10-31T11:59:50;102136.45;;;17.38;100.00
68712;BME280;55690;51.566;19.198;2022-10-31T12:08:12;102130.23;;;17.58;100.00
68712;BME280;55690;51.566;19.198;2022-10-31T12:16:36;102134.11;;;17.78;100.00
68712;BME280;55690;51.566;19.198;2022-10-31T12:20:53;102133.10;;;17.90;100.00
68712;BME280;55690;51.566;19.198;2022-10-31T12:37:37;102120.22;;;18.02;100.00
68712;BME280;55690;51.566;19.198;2022-10-31T12:41:51;102113.97;;;18.00;100.00
68712;BME280;55690;51.566;19.198;2022-10-31T12:45:58;102110.23;;;18.01;100.00
68712;BME280;55690;51.566;19.198;2022-10-31T12:58:36;102114.86;;;17.89;100.00
68712;BME280;55690;51.566;19.198;2022-10-31T13:07:02;102114.36;;;17.84;100.00
68712;BME280;55690;51.566;19.198;2022-10-31T13:15:22;102111.54;;;17.75;100.00
68712;BME280;55690;51.566;19.198;2022-10-31T13:19:36;102117.53;;;17.69;100.00
68712;BME280;55690;51.566;19.198;2022-10-31T13:23:40;102108.13;;;17.60;100.00
68712;BME280;55690;51.566;19.198;2022-10-31T13:27:55;102109.14;;;17.59;100.00
68712;BME280;55690;51.566;19.198;2022-10-31T13:32:07;102103.89;;;17.56;100.00
68712;BME280;55690;51.566;19.198;2022-10-31T13:40:33;102115.98;;;17.42;100.00
68712;BME280;55690;51.566;19.198;2022-10-31T13:44:35;102110.99;;;17.36;100.00
68712;BME280;55690;51.566;19.198;2022-10-31T13:48:41;102113.01;;;17.23;100.00
68712;BME280;55690;51.566;19.198;2022-10-31T13:52:44;102114.75;;;17.24;100.00
68712;BME280;55690;51.566;19.198;2022-10-31T13:56:53;102110.63;;;17.18;100.00
68712;BME280;55690;51.566;19.198;2022-10-31T14:13:36;102121.14;;;16.78;100.00
68712;BME280;55690;51.566;19.198;2022-10-31T14:21:58;102122.21;;;16.65;100.00
68712;BME280;55690;51.566;19.198;2022-10-31T14:30:19;102117.99;;;16.48;100.00
68712;BME280;55690;51.566;19.198;2022-10-31T14:38:38;102111.55;;;16.25;100.00
68712;BME280;55690;51.566;19.198;2022-10-31T14:47:06;102110.56;;;16.02;100.00
68712;BME280;55690;51.566;19.198;2022-10-31T14:55:22;102111.51;;;15.77;100.00
68712;BME280;55690;51.566;19.198;2022-10-31T14:59:29;102112.06;;;15.70;100.00
68712;BME280;55690;51.566;19.198;2022-10-31T15:03:44;102104.52;;;15.60;100.00
68712;BME280;55690;51.566;19.198;2022-10-31T15:07:57;102108.15;;;15.48;100.00
68712;BME280;55690;51.566;19.198;2022-10-31T15:16:21;102101.27;;;15.17;100.00
68712;BME280;55690;51.566;19.198;2022-10-31T15:20:29;102102.05;;;15.07;100.00
68712;BME280;55690;51.566;19.198;2022-10-31T15:24:36;102103.90;;;14.93;100.00
68712;BME280;55690;51.566;19.198;2022-10-31T15:28:39;102106.41;;;14.84;100.00
68712;BME280;55690;51.566;19.198;2022-10-31T15:32:44;102117.45;;;14.70;100.00
68712;BME280;55690;51.566;19.198;2022-10-31T15:36:48;102117.98;;;14.62;100.00
68712;BME280;55690;51.566;19.198;2022-10-31T15:55:30;102119.34;;;14.15;100.00
68712;BME280;55690;51.566;19.198;2022-10-31T15:59:40;102116.13;;;14.09;100.00
68712;BME280;55690;51.566;19.198;2022-10-31T16:03:43;102125.02;;;13.98;100.00
68712;BME280;55690;51.566;19.198;2022-10-31T16:07:50;102132.74;;;13.91;100.00
68712;BME280;55690;51.566;19.198;2022-10-31T16:16:04;102132.70;;;13.79;100.00
68712;BME280;55690;51.566;19.198;2022-10-31T16:20:16;102124.43;;;13.66;100.00
68712;BME280;55690;51.566;19.198;2022-10-31T16:28:25;102140.91;;;13.50;100.00
68712;BME280;55690;51.566;19.198;2022-10-31T16:36:36;102150.68;;;13.40;100.00
68712;BME280;55690;51.566;19.198;2022-10-31T16:40:40;102143.76;;;13.35;100.00
68712;BME280;55690;51.566;19.198;2022-10-31T16:44:44;102148.53;;;13.31;100.00
68712;BME280;55690;51.566;19.198;2022-10-31T16:48:48;102153.40;;;13.26;100.00
68712;BME280;55690;51.566;19.198;2022-10-31T16:52:54;102154.75;;;13.19;100.00
68712;BME280;55690;51.566;19.198;2022-10-31T16:57:03;102149.04;;;13.08;100.00
68712;BME280;55690;51.566;19.198;2022-10-31T17:01:07;102155.97;;;12.99;100.00
68712;BME280;55690;51.566;19.198;2022-10-31T17:05:14;102149.04;;;12.93;100.00
68712;BME280;55690;51.566;19.198;2022-10-31T17:09:19;102157.41;;;12.90;100.00
68712;BME280;55690;51.566;19.198;2022-10-31T17:13:28;102155.55;;;12.91;100.00
68712;BME280;55690;51.566;19.198;2022-10-31T17:17:31;102150.20;;;12.89;100.00
68712;BME280;55690;51.566;19.198;2022-10-31T17:21:38;102151.73;;;12.79;100.00
68712;BME280;55690;51.566;19.198;2022-10-31T17:25:43;102153.67;;;12.77;100.00
68712;BME280;55690;51.566;19.198;2022-10-31T17:29:50;102154.40;;;12.65;100.00
68712;BME280;55690;51.566;19.198;2022-10-31T17:33:57;102156.43;;;12.61;100.00
68712;BME280;55690;51.566;19.198;2022-10-31T17:38:02;102163.82;;;12.59;100.00
68712;BME280;55690;51.566;19.198;2022-10-31T17:42:08;102166.27;;;12.64;100.00
68712;BME280;55690;51.566;19.198;2022-10-31T17:46:14;102158.88;;;12.66;100.00
68712;BME280;55690;51.566;19.198;2022-10-31T17:50:22;102159.76;;;12.66;100.00
68712;BME280;55690;51.566;19.198;2022-10-31T17:54:27;102161.09;;;12.59;100.00
68712;BME280;55690;51.566;19.198;2022-10-31T17:58:36;102154.20;;;12.54;100.00
68712;BME280;55690;51.566;19.198;2022-10-31T18:02:39;102156.48;;;12.46;100.00
68712;BME280;55690;51.566;19.198;2022-10-31T18:06:45;102157.46;;;12.45;100.00
68712;BME280;55690;51.566;19.198;2022-10-31T18:10:51;102154.93;;;12.26;100.00
68712;BME280;55690;51.566;19.198;2022-10-31T18:14:58;102164.68;;;12.14;100.00
68712;BME280;55690;51.566;19.198;2022-10-31T18:19:04;102160.51;;;12.09;100.00
68712;BME280;55690;51.566;19.198;2022-10-31T18:23:10;102161.09;;;12.14;100.00
68712;BME280;55690;51.566;19.198;2022-10-31T18:27:16;102161.29;;;12.11;100.00
68712;BME280;55690;51.566;19.198;2022-10-31T18:31:23;102162.09;;;12.13;100.00
68712;BME280;55690;51.566;19.198;2022-10-31T18:35:29;102168.38;;;12.13;100.00
68712;BME280;55690;51.566;19.198;2022-10-31T18:39:35;102162.58;;;12.19;100.00
68712;BME280;55690;51.566;19.198;2022-10-31T18:43:41;102153.35;;;12.22;100.00
68712;BME280;55690;51.566;19.198;2022-10-31T18:47:49;102154.58;;;12.16;100.00
68712;BME280;55690;51.566;19.198;2022-10-31T18:51:54;102162.70;;;12.02;100.00
68712;BME280;55690;51.566;19.198;2022-10-31T18:56:00;102156.36;;;11.86;100.00
68712;BME280;55690;51.566;19.198;2022-10-31T19:00:06;102148.63;;;11.78;100.00
68712;BME280;55690;51.566;19.198;2022-10-31T19:04:12;102147.00;;;11.74;100.00
68712;BME280;55690;51.566;19.198;2022-10-31T19:08:19;102140.61;;;11.59;100.00
68712;BME280;55690;51.566;19.198;2022-10-31T19:12:31;102146.81;;;11.46;100.00
68712;BME280;55690;51.566;19.198;2022-10-31T19:16:33;102151.45;;;11.44;100.00
68712;BME280;55690;51.566;19.198;2022-10-31T19:20:38;102137.14;;;11.40;100.00
68712;BME280;55690;51.566;19.198;2022-10-31T19:24:44;102148.37;;;11.34;100.00
68712;BME280;55690;51.566;19.198;2022-10-31T19:28:50;102136.05;;;11.27;100.00
68712;BME280;55690;51.566;19.198;2022-10-31T19:37:02;102131.06;;;11.19;100.00
68712;BME280;55690;51.566;19.198;2022-10-31T19:41:15;102137.46;;;11.18;100.00
68712;BME280;55690;51.566;19.198;2022-10-31T19:45:18;102127.55;;;11.17;100.00
68712;BME280;55690;51.566;19.198;2022-10-31T19:49:21;102133.23;;;11.13;100.00
68712;BME280;55690;51.566;19.198;2022-10-31T19:53:28;102127.25;;;11.06;100.00
68712;BME280;55690;51.566;19.198;2022-10-31T19:57:33;102124.21;;;10.95;100.00
68712;BME280;55690;51.566;19.198;2022-10-31T20:01:40;102126.38;;;10.88;100.00
68712;BME280;55690;51.566;19.198;2022-10-31T20:05:46;102126.47;;;10.87;100.00
68712;BME280;55690;51.566;19.198;2022-10-31T20:09:52;102127.61;;;10.83;100.00
68712;BME280;55690;51.566;19.198;2022-10-31T20:13:58;102122.50;;;10.77;100.00
68712;BME280;55690;51.566;19.198;2022-10-31T20:18:04;102114.59;;;10.72;100.00
68712;BME280;55690;51.566;19.198;2022-10-31T20:22:10;102115.47;;;10.73;100.00
68712;BME280;55690;51.566;19.198;2022-10-31T20:26:18;102113.47;;;10.59;100.00
68712;BME280;55690;51.566;19.198;2022-10-31T20:30:23;102121.95;;;10.36;100.00
68712;BME280;55690;51.566;19.198;2022-10-31T20:38:39;102111.77;;;10.03;100.00
68712;BME280;55690;51.566;19.198;2022-10-31T20:42:41;102116.17;;;10.06;100.00
68712;BME280;55690;51.566;19.198;2022-10-31T20:46:47;102114.33;;;10.06;100.00
68712;BME280;55690;51.566;19.198;2022-10-31T20:50:58;102107.07;;;10.07;100.00
68712;BME280;55690;51.566;19.198;2022-10-31T20:55:00;102112.20;;;10.13;100.00
68712;BME280;55690;51.566;19.198;2022-10-31T20:59:06;102111.17;;;10.15;100.00
68712;BME280;55690;51.566;19.198;2022-10-31T21:03:12;102112.05;;;10.16;100.00
68712;BME280;55690;51.566;19.198;2022-10-31T21:07:18;102110.98;;;10.20;100.00
68712;BME280;55690;51.566;19.198;2022-10-31T21:11:26;102107.30;;;10.02;100.00
68712;BME280;55690;51.566;19.198;2022-10-31T21:15:30;102100.35;;;9.96;100.00
68712;BME280;55690;51.566;19.198;2022-10-31T21:19:37;102096.13;;;9.91;100.00
68712;BME280;55690;51.566;19.198;2022-10-31T21:23:43;102100.09;;;9.84;100.00
68712;BME280;55690;51.566;19.198;2022-10-31T21:27:49;102088.21;;;9.86;100.00
68712;BME280;55690;51.566;19.198;2022-10-31T21:31:55;102086.45;;;9.85;100.00
68712;BME280;55690;51.566;19.198;2022-10-31T21:36:02;102082.94;;;9.83;100.00
68712;BME280;55690;51.566;19.198;2022-10-31T21:40:08;102071.06;;;9.86;100.00
68712;BME280;55690;51.566;19.198;2022-10-31T21:44:14;102084.32;;;9.92;100.00
68712;BME280;55690;51.566;19.198;2022-10-31T21:48:20;102082.80;;;9.86;100.00
68712;BME280;55690;51.566;19.198;2022-10-31T21:52:26;102072.47;;;9.76;100.00
68712;BME280;55690;51.566;19.198;2022-10-31T21:56:33;102084.20;;;9.76;100.00
68712;BME280;55690;51.566;19.198;2022-10-31T22:00:38;102085.58;;;9.85;100.00
68712;BME280;55690;51.566;19.198;2022-10-31T22:04:45;102071.71;;;9.91;100.00
68712;BME280;55690;51.566;19.198;2022-10-31T22:12:57;102073.27;;;9.78;100.00
68712;BME280;55690;51.566;19.198;2022-10-31T22:17:03;102067.99;;;9.75;100.00
68712;BME280;55690;51.566;19.198;2022-10-31T22:21:13;102069.90;;;9.73;100.00
68712;BME280;55690;51.566;19.198;2022-10-31T22:25:16;102075.55;;;9.68;100.00
68712;BME280;55690;51.566;19.198;2022-10-31T22:29:22;102069.23;;;9.67;100.00
68712;BME280;55690;51.566;19.198;2022-10-31T22:37:34;102062.72;;;9.72;100.00
68712;BME280;55690;51.566;19.198;2022-10-31T22:41:41;102057.45;;;9.68;100.00
68712;BME280;55690;51.566;19.198;2022-10-31T22:50:04;102044.10;;;9.64;100.00
68712;BME280;55690;51.566;19.198;2022-10-31T22:54:11;102035.64;;;9.53;100.00
68712;BME280;55690;51.566;19.198;2022-10-31T22:58:13;102042.24;;;9.47;100.00
68712;BME280;55690;51.566;19.198;2022-10-31T23:02:15;102050.89;;;9.37;100.00
68712;BME280;55690;51.566;19.198;2022-10-31T23:06:23;102057.19;;;9.37;100.00
68712;BME280;55690;51.566;19.198;2022-10-31T23:10:25;102051.48;;;9.43;100.00
68712;BME280;55690;51.566;19.198;2022-10-31T23:14:33;102052.57;;;9.39;100.00
68712;BME280;55690;51.566;19.198;2022-10-31T23:18:36;102046.86;;;9.45;100.00
68712;BME280;55690;51.566;19.198;2022-10-31T23:22:42;102042.83;;;9.35;100.00
68712;BME280;55690;51.566;19.198;2022-10-31T23:26:49;102036.52;;;9.34;100.00
68712;BME280;55690;51.566;19.198;2022-10-31T23:31:03;102023.20;;;9.30;100.00
68712;BME280;55690;51.566;19.198;2022-10-31T23:35:07;102018.88;;;9.26;100.00
68712;BME280;55690;51.566;19.198;2022-10-31T23:39:09;102003.85;;;9.19;100.00
68712;BME280;55690;51.566;19.198;2022-10-31T23:43:13;102005.61;;;9.20;100.00
68712;BME280;55690;51.566;19.198;2022-10-31T23:47:20;102014.83;;;9.16;100.00
68712;BME280;55690;51.566;19.198;2022-10-31T23:51:25;101994.32;;;9.10;100.00
68712;BME280;55690;51.566;19.198;2022-10-31T23:55:31;101990.25;;;9.02;100.00
68712;BME280;55690;51.566;19.198;2022-10-31T23:59:38;101998.45;;;9.00;100.00
